sensor_id;sensor_type;location;lat;lon;timestamp;pressure;altitude;pressure_sealevel;temperature;humidity
24230;BME280;12362;50.004;8.006;2023-04-25T00:01:22;99990.09;;;8.96;100.00
24230;BME280;12362;50.004;8.006;2023-04-25T00:03:48;99987.34;;;8.99;100.00
24230;BME280;12362;50.004;8.006;2023-04-25T00:06:13;99979.66;;;8.97;100.00
24230;BME280;12362;50.004;8.006;2023-04-25T00:08:39;99984.69;;;9.00;100.00
24230;BME280;12362;50.004;8.006;2023-04-25T00:11:05;99988.25;;;8.98;100.00
24230;BME280;12362;50.004;8.006;2023-04-25T00:13:30;100002.28;;;9.10;100.00
24230;BME280;12362;50.004;8.006;2023-04-25T00:15:56;99996.72;;;9.18;100.00
24230;BME280;12362;50.004;8.006;2023-04-25T00:18:23;99993.91;;;9.22;100.00
24230;BME280;12362;50.004;8.006;2023-04-25T00:20:49;99992.84;;;9.09;100.00
24230;BME280;12362;50.004;8.006;2023-04-25T00:23:17;99996.09;;;9.13;100.00
24230;BME280;12362;50.004;8.006;2023-04-25T00:25:44;99992.38;;;9.18;100.00
24230;BME280;12362;50.004;8.006;2023-04-25T00:28:11;99992.78;;;9.28;100.00
24230;BME280;12362;50.004;8.006;2023-04-25T00:30:36;99990.94;;;9.30;100.00
24230;BME280;12362;50.004;8.006;2023-04-25T00:33:02;99997.56;;;9.35;100.00
24230;BME280;12362;50.004;8.006;2023-04-25T00:35:31;99997.44;;;9.38;100.00
24230;BME280;12362;50.004;8.006;2023-04-25T00:37:57;99999.16;;;9.38;100.00
24230;BME280;12362;50.004;8.006;2023-04-25T00:40:23;99985.56;;;9.17;100.00
24230;BME280;12362;50.004;8.006;2023-04-25T00:42:49;99988.88;;;9.19;100.00
24230;BME280;12362;50.004;8.006;2023-04-25T00:45:17;99992.19;;;9.23;100.00
24230;BME280;12362;50.004;8.006;2023-04-25T00:47:43;99988.34;;;9.30;100.00
24230;BME280;12362;50.004;8.006;2023-04-25T00:50:09;99978.81;;;9.30;100.00
24230;BME280;12362;50.004;8.006;2023-04-25T00:52:38;99981.09;;;9.19;100.00
24230;BME280;12362;50.004;8.006;2023-04-25T00:55:05;99979.13;;;9.24;100.00
24230;BME280;12362;50.004;8.006;2023-04-25T00:57:30;99983.25;;;9.28;100.00
24230;BME280;12362;50.004;8.006;2023-04-25T00:59:56;99983.31;;;9.27;100.00
24230;BME280;12362;50.004;8.006;2023-04-25T01:02:22;99978.91;;;9.29;100.00
24230;BME280;12362;50.004;8.006;2023-04-25T01:04:48;99978.13;;;9.27;100.00
24230;BME280;12362;50.004;8.006;2023-04-25T01:07:14;99984.41;;;9.23;100.00
24230;BME280;12362;50.004;8.006;2023-04-25T01:09:41;99983.47;;;9.24;100.00
24230;BME280;12362;50.004;8.006;2023-04-25T01:12:07;99976.53;;;9.24;100.00
24230;BME280;12362;50.004;8.006;2023-04-25T01:14:33;99976.41;;;9.27;100.00
24230;BME280;12362;50.004;8.006;2023-04-25T01:16:59;99976.94;;;9.17;100.00
24230;BME280;12362;50.004;8.006;2023-04-25T01:19:25;99975.56;;;9.10;100.00
24230;BME280;12362;50.004;8.006;2023-04-25T01:21:51;99974.66;;;9.11;100.00
24230;BME280;12362;50.004;8.006;2023-04-25T01:24:17;99969.53;;;9.09;100.00
24230;BME280;12362;50.004;8.006;2023-04-25T01:26:43;99966.13;;;9.09;100.00
24230;BME280;12362;50.004;8.006;2023-04-25T01:29:16;99963.06;;;9.18;100.00
24230;BME280;12362;50.004;8.006;2023-04-25T01:31:42;99960.16;;;9.24;100.00
24230;BME280;12362;50.004;8.006;2023-04-25T01:34:08;99968.34;;;9.16;100.00
24230;BME280;12362;50.004;8.006;2023-04-25T01:36:34;99966.94;;;9.26;100.00
24230;BME280;12362;50.004;8.006;2023-04-25T01:39:00;99970.47;;;9.25;100.00
24230;BME280;12362;50.004;8.006;2023-04-25T01:41:27;99969.47;;;9.28;100.00
24230;BME280;12362;50.004;8.006;2023-04-25T01:43:52;99979.06;;;9.09;100.00
24230;BME280;12362;50.004;8.006;2023-04-25T01:46:18;99980.22;;;9.03;100.00
24230;BME280;12362;50.004;8.006;2023-04-25T01:48:44;99979.59;;;8.99;100.00
24230;BME280;12362;50.004;8.006;2023-04-25T01:51:10;99975.25;;;8.99;100.00
24230;BME280;12362;50.004;8.006;2023-04-25T01:53:38;99974.53;;;8.96;100.00
24230;BME280;12362;50.004;8.006;2023-04-25T01:56:04;99971.59;;;9.03;100.00
24230;BME280;12362;50.004;8.006;2023-04-25T01:58:33;99969.47;;;9.11;100.00
24230;BME280;12362;50.004;8.006;2023-04-25T02:01:01;99971.53;;;9.04;100.00
24230;BME280;12362;50.004;8.006;2023-04-25T02:03:33;99976.22;;;8.97;100.00
24230;BME280;12362;50.004;8.006;2023-04-25T02:06:00;99982.25;;;8.97;100.00
24230;BME280;12362;50.004;8.006;2023-04-25T02:08:26;99974.09;;;8.88;100.00
24230;BME280;12362;50.004;8.006;2023-04-25T02:10:54;99974.94;;;8.88;100.00
24230;BME280;12362;50.004;8.006;2023-04-25T02:13:19;99979.84;;;8.76;100.00
24230;BME280;12362;50.004;8.006;2023-04-25T02:16:05;99974.53;;;8.79;100.00
24230;BME280;12362;50.004;8.006;2023-04-25T02:18:31;99972.41;;;8.70;100.00
24230;BME280;12362;50.004;8.006;2023-04-25T02:20:58;99982.59;;;8.73;100.00
24230;BME280;12362;50.004;8.006;2023-04-25T02:23:24;99977.16;;;8.60;100.00
24230;BME280;12362;50.004;8.006;2023-04-25T02:25:51;99981.16;;;8.49;100.00
24230;BME280;12362;50.004;8.006;2023-04-25T02:28:17;99976.97;;;8.46;100.00
24230;BME280;12362;50.004;8.006;2023-04-25T02:30:43;99988.91;;;8.49;100.00
24230;BME280;12362;50.004;8.006;2023-04-25T02:33:08;99982.78;;;8.51;100.00
24230;BME280;12362;50.004;8.006;2023-04-25T02:35:35;99979.53;;;8.65;100.00
24230;BME280;12362;50.004;8.006;2023-04-25T02:38:00;99982.34;;;8.60;100.00
24230;BME280;12362;50.004;8.006;2023-04-25T02:40:26;99981.81;;;8.71;100.00
24230;BME280;12362;50.004;8.006;2023-04-25T02:42:53;99983.81;;;8.66;100.00
24230;BME280;12362;50.004;8.006;2023-04-25T02:45:19;99986.38;;;8.66;100.00
24230;BME280;12362;50.004;8.006;2023-04-25T02:47:44;99980.22;;;8.68;100.00
24230;BME280;12362;50.004;8.006;2023-04-25T02:50:10;99979.03;;;8.75;100.00
24230;BME280;12362;50.004;8.006;2023-04-25T02:52:37;99975.03;;;8.68;100.00
24230;BME280;12362;50.004;8.006;2023-04-25T02:55:12;99977.13;;;8.79;100.00
24230;BME280;12362;50.004;8.006;2023-04-25T02:57:38;99975.03;;;8.68;100.00
24230;BME280;12362;50.004;8.006;2023-04-25T03:00:04;99979.22;;;8.71;100.00
24230;BME280;12362;50.004;8.006;2023-04-25T03:02:30;99976.19;;;8.63;100.00
24230;BME280;12362;50.004;8.006;2023-04-25T03:04:56;99970.63;;;8.70;100.00
24230;BME280;12362;50.004;8.006;2023-04-25T03:07:22;99966.84;;;8.77;100.00
24230;BME280;12362;50.004;8.006;2023-04-25T03:09:48;99959.06;;;8.77;100.00
24230;BME280;12362;50.004;8.006;2023-04-25T03:12:13;99954.34;;;8.68;100.00
24230;BME280;12362;50.004;8.006;2023-04-25T03:14:38;99956.78;;;8.71;100.00
24230;BME280;12362;50.004;8.006;2023-04-25T03:17:04;99963.09;;;8.66;100.00
24230;BME280;12362;50.004;8.006;2023-04-25T03:19:30;99953.53;;;8.68;100.00
24230;BME280;12362;50.004;8.006;2023-04-25T03:21:55;99957.78;;;8.69;100.00
24230;BME280;12362;50.004;8.006;2023-04-25T03:24:21;99955.78;;;8.74;100.00
24230;BME280;12362;50.004;8.006;2023-04-25T03:26:48;99960.44;;;8.67;100.00
24230;BME280;12362;50.004;8.006;2023-04-25T03:29:13;99969.19;;;8.65;100.00
24230;BME280;12362;50.004;8.006;2023-04-25T03:31:41;99969.19;;;8.65;100.00
24230;BME280;12362;50.004;8.006;2023-04-25T03:34:07;99966.22;;;8.72;100.00
24230;BME280;12362;50.004;8.006;2023-04-25T03:36:32;99961.59;;;8.79;100.00
24230;BME280;12362;50.004;8.006;2023-04-25T03:38:58;99962.88;;;8.70;100.00
24230;BME280;12362;50.004;8.006;2023-04-25T03:41:23;99970.31;;;8.59;100.00
24230;BME280;12362;50.004;8.006;2023-04-25T03:43:56;99973.81;;;8.58;100.00
24230;BME280;12362;50.004;8.006;2023-04-25T03:46:22;99979.13;;;8.55;100.00
24230;BME280;12362;50.004;8.006;2023-04-25T03:48:47;99977.63;;;8.51;100.00
24230;BME280;12362;50.004;8.006;2023-04-25T03:51:19;99980.75;;;8.58;100.00
24230;BME280;12362;50.004;8.006;2023-04-25T03:53:45;99987.53;;;8.42;100.00
24230;BME280;12362;50.004;8.006;2023-04-25T03:56:22;99986.34;;;8.30;100.00
24230;BME280;12362;50.004;8.006;2023-04-25T03:58:56;99993.59;;;8.59;100.00
24230;BME280;12362;50.004;8.006;2023-04-25T04:01:24;100001.81;;;8.50;100.00
24230;BME280;12362;50.004;8.006;2023-04-25T04:03:50;99999.22;;;8.50;100.00
24230;BME280;12362;50.004;8.006;2023-04-25T04:06:16;99995.78;;;8.50;100.00
24230;BME280;12362;50.004;8.006;2023-04-25T04:08:46;99998.03;;;8.39;100.00
24230;BME280;12362;50.004;8.006;2023-04-25T04:11:12;100003.50;;;8.33;100.00
24230;BME280;12362;50.004;8.006;2023-04-25T04:13:37;100000.63;;;8.20;100.00
24230;BME280;12362;50.004;8.006;2023-04-25T04:16:03;100008.81;;;8.30;100.00
24230;BME280;12362;50.004;8.006;2023-04-25T04:18:30;100016.47;;;8.31;100.00
24230;BME280;12362;50.004;8.006;2023-04-25T04:20:56;100020.53;;;8.18;100.00
24230;BME280;12362;50.004;8.006;2023-04-25T04:23:23;100020.00;;;8.10;100.00
24230;BME280;12362;50.004;8.006;2023-04-25T04:25:50;100019.31;;;8.07;100.00
24230;BME280;12362;50.004;8.006;2023-04-25T04:28:43;100020.28;;;8.05;100.00
24230;BME280;12362;50.004;8.006;2023-04-25T04:31:22;100024.69;;;8.03;100.00
24230;BME280;12362;50.004;8.006;2023-04-25T04:33:49;100015.50;;;7.96;100.00
24230;BME280;12362;50.004;8.006;2023-04-25T04:36:16;100013.38;;;7.67;100.00
24230;BME280;12362;50.004;8.006;2023-04-25T04:38:45;99999.81;;;7.62;100.00
24230;BME280;12362;50.004;8.006;2023-04-25T04:41:19;99999.50;;;7.49;100.00
24230;BME280;12362;50.004;8.006;2023-04-25T04:43:53;100012.00;;;7.58;100.00
24230;BME280;12362;50.004;8.006;2023-04-25T04:46:33;100011.19;;;7.58;100.00
24230;BME280;12362;50.004;8.006;2023-04-25T04:49:12;100025.75;;;7.79;100.00
24230;BME280;12362;50.004;8.006;2023-04-25T04:52:08;100030.41;;;7.91;100.00
24230;BME280;12362;50.004;8.006;2023-04-25T04:54:52;100042.47;;;7.90;100.00
24230;BME280;12362;50.004;8.006;2023-04-25T04:57:37;100040.41;;;7.98;100.00
24230;BME280;12362;50.004;8.006;2023-04-25T05:00:30;100050.88;;;7.95;100.00
24230;BME280;12362;50.004;8.006;2023-04-25T05:03:14;100042.00;;;8.01;100.00
24230;BME280;12362;50.004;8.006;2023-04-25T05:05:59;100044.78;;;7.96;100.00
24230;BME280;12362;50.004;8.006;2023-04-25T05:08:43;100047.78;;;7.87;100.00
24230;BME280;12362;50.004;8.006;2023-04-25T05:11:22;100046.16;;;8.05;100.00
24230;BME280;12362;50.004;8.006;2023-04-25T05:14:08;100047.66;;;8.08;100.00
24230;BME280;12362;50.004;8.006;2023-04-25T05:16:43;100046.75;;;8.09;100.00
24230;BME280;12362;50.004;8.006;2023-04-25T05:19:29;100057.88;;;8.11;100.00
24230;BME280;12362;50.004;8.006;2023-04-25T05:22:15;100065.84;;;8.07;100.00
24230;BME280;12362;50.004;8.006;2023-04-25T05:24:57;100062.94;;;7.95;100.00
24230;BME280;12362;50.004;8.006;2023-04-25T05:27:53;100067.09;;;7.99;100.00
24230;BME280;12362;50.004;8.006;2023-04-25T05:30:38;100073.09;;;7.99;100.00
24230;BME280;12362;50.004;8.006;2023-04-25T05:33:29;100067.63;;;7.87;100.00
24230;BME280;12362;50.004;8.006;2023-04-25T05:35:55;100066.50;;;7.92;100.00
24230;BME280;12362;50.004;8.006;2023-04-25T05:38:21;100063.22;;;7.89;100.00
24230;BME280;12362;50.004;8.006;2023-04-25T05:41:05;100058.75;;;7.92;100.00
24230;BME280;12362;50.004;8.006;2023-04-25T05:43:51;100062.56;;;7.84;100.00
24230;BME280;12362;50.004;8.006;2023-04-25T05:46:27;100059.97;;;8.04;100.00
24230;BME280;12362;50.004;8.006;2023-04-25T05:49:13;100067.25;;;8.34;100.00
24230;BME280;12362;50.004;8.006;2023-04-25T05:51:55;100066.72;;;8.26;100.00
24230;BME280;12362;50.004;8.006;2023-04-25T05:54:33;100075.69;;;8.19;100.00
24230;BME280;12362;50.004;8.006;2023-04-25T05:56:59;100081.47;;;8.24;100.00
24230;BME280;12362;50.004;8.006;2023-04-25T05:59:25;100072.81;;;8.25;100.00
24230;BME280;12362;50.004;8.006;2023-04-25T06:01:50;100077.31;;;8.40;100.00
24230;BME280;12362;50.004;8.006;2023-04-25T06:04:17;100082.59;;;8.37;100.00
24230;BME280;12362;50.004;8.006;2023-04-25T06:06:43;100083.81;;;8.30;100.00
24230;BME280;12362;50.004;8.006;2023-04-25T06:09:08;100088.06;;;8.31;100.00
24230;BME280;12362;50.004;8.006;2023-04-25T06:11:34;100085.56;;;8.48;100.00
24230;BME280;12362;50.004;8.006;2023-04-25T06:14:00;100086.63;;;8.62;100.00
24230;BME280;12362;50.004;8.006;2023-04-25T06:16:26;100079.78;;;8.61;100.00
24230;BME280;12362;50.004;8.006;2023-04-25T06:18:52;100078.84;;;8.81;100.00
24230;BME280;12362;50.004;8.006;2023-04-25T06:21:17;100080.56;;;8.99;100.00
24230;BME280;12362;50.004;8.006;2023-04-25T06:23:43;100079.16;;;9.27;100.00
24230;BME280;12362;50.004;8.006;2023-04-25T06:26:11;100072.06;;;9.30;100.00
24230;BME280;12362;50.004;8.006;2023-04-25T06:28:40;100075.94;;;9.40;100.00
24230;BME280;12362;50.004;8.006;2023-04-25T06:31:06;100081.38;;;9.34;100.00
24230;BME280;12362;50.004;8.006;2023-04-25T06:33:31;100073.69;;;9.33;100.00
24230;BME280;12362;50.004;8.006;2023-04-25T06:35:59;100075.97;;;9.39;100.00
24230;BME280;12362;50.004;8.006;2023-04-25T06:38:48;100078.00;;;10.17;100.00
24230;BME280;12362;50.004;8.006;2023-04-25T06:41:14;100069.75;;;10.89;100.00
24230;BME280;12362;50.004;8.006;2023-04-25T06:43:40;100062.59;;;11.08;100.00
24230;BME280;12362;50.004;8.006;2023-04-25T06:46:15;100054.28;;;11.01;100.00
24230;BME280;12362;50.004;8.006;2023-04-25T06:48:44;100069.28;;;10.02;100.00
24230;BME280;12362;50.004;8.006;2023-04-25T06:51:10;100079.34;;;10.56;100.00
24230;BME280;12362;50.004;8.006;2023-04-25T06:53:37;100063.94;;;10.69;100.00
24230;BME280;12362;50.004;8.006;2023-04-25T06:56:06;100062.72;;;11.36;100.00
24230;BME280;12362;50.004;8.006;2023-04-25T06:58:49;100071.13;;;11.84;100.00
24230;BME280;12362;50.004;8.006;2023-04-25T07:01:29;100070.09;;;11.86;100.00
24230;BME280;12362;50.004;8.006;2023-04-25T07:03:57;100075.03;;;11.91;100.00
24230;BME280;12362;50.004;8.006;2023-04-25T07:06:24;100068.19;;;11.61;100.00
24230;BME280;12362;50.004;8.006;2023-04-25T07:09:09;100075.81;;;12.21;100.00
24230;BME280;12362;50.004;8.006;2023-04-25T07:11:52;100071.31;;;11.95;100.00
24230;BME280;12362;50.004;8.006;2023-04-25T07:14:37;100070.19;;;12.68;100.00
24230;BME280;12362;50.004;8.006;2023-04-25T07:17:36;100076.53;;;11.95;100.00
24230;BME280;12362;50.004;8.006;2023-04-25T07:20:25;100074.03;;;11.93;100.00
24230;BME280;12362;50.004;8.006;2023-04-25T07:23:26;100082.59;;;11.51;100.00
24230;BME280;12362;50.004;8.006;2023-04-25T07:25:52;100089.56;;;11.21;100.00
24230;BME280;12362;50.004;8.006;2023-04-25T07:32:14;100082.72;;;10.89;100.00
24230;BME280;12362;50.004;8.006;2023-04-25T07:34:43;100088.50;;;10.63;100.00
24230;BME280;12362;50.004;8.006;2023-04-25T07:37:09;100088.88;;;11.02;100.00
24230;BME280;12362;50.004;8.006;2023-04-25T07:39:45;100088.28;;;11.28;100.00
24230;BME280;12362;50.004;8.006;2023-04-25T07:45:02;100101.13;;;11.15;100.00
24230;BME280;12362;50.004;8.006;2023-04-25T07:47:29;100103.22;;;11.09;100.00
24230;BME280;12362;50.004;8.006;2023-04-25T07:49:54;100094.75;;;11.21;100.00
24230;BME280;12362;50.004;8.006;2023-04-25T07:52:22;100094.69;;;11.81;100.00
24230;BME280;12362;50.004;8.006;2023-04-25T07:54:53;100097.72;;;11.89;100.00
24230;BME280;12362;50.004;8.006;2023-04-25T07:57:57;100098.13;;;12.11;100.00
24230;BME280;12362;50.004;8.006;2023-04-25T08:00:23;100105.25;;;11.93;100.00
24230;BME280;12362;50.004;8.006;2023-04-25T08:02:57;100109.88;;;11.59;100.00
24230;BME280;12362;50.004;8.006;2023-04-25T08:05:30;100112.84;;;11.82;100.00
24230;BME280;12362;50.004;8.006;2023-04-25T08:08:01;100113.19;;;12.34;100.00
24230;BME280;12362;50.004;8.006;2023-04-25T08:10:28;100114.84;;;12.21;100.00
24230;BME280;12362;50.004;8.006;2023-04-25T08:12:54;100125.22;;;11.93;100.00
24230;BME280;12362;50.004;8.006;2023-04-25T08:15:19;100119.47;;;11.59;100.00
24230;BME280;12362;50.004;8.006;2023-04-25T08:17:46;100126.25;;;11.46;100.00
24230;BME280;12362;50.004;8.006;2023-04-25T08:20:12;100120.19;;;11.45;100.00
24230;BME280;12362;50.004;8.006;2023-04-25T08:22:37;100128.75;;;11.47;100.00
24230;BME280;12362;50.004;8.006;2023-04-25T08:25:23;100126.22;;;12.34;100.00
24230;BME280;12362;50.004;8.006;2023-04-25T08:27:49;100141.53;;;11.81;100.00
24230;BME280;12362;50.004;8.006;2023-04-25T08:30:16;100143.56;;;11.76;100.00
24230;BME280;12362;50.004;8.006;2023-04-25T08:32:42;100149.59;;;11.77;100.00
24230;BME280;12362;50.004;8.006;2023-04-25T08:35:28;100156.38;;;12.08;100.00
24230;BME280;12362;50.004;8.006;2023-04-25T08:37:54;100155.91;;;12.02;100.00
24230;BME280;12362;50.004;8.006;2023-04-25T08:40:22;100160.09;;;12.04;100.00
24230;BME280;12362;50.004;8.006;2023-04-25T08:42:58;100164.22;;;12.22;100.00
24230;BME280;12362;50.004;8.006;2023-04-25T08:45:27;100171.91;;;12.10;100.00
24230;BME280;12362;50.004;8.006;2023-04-25T08:47:56;100174.50;;;12.10;100.00
24230;BME280;12362;50.004;8.006;2023-04-25T08:50:22;100165.75;;;12.40;100.00
24230;BME280;12362;50.004;8.006;2023-04-25T08:52:53;100179.56;;;12.27;100.00
24230;BME280;12362;50.004;8.006;2023-04-25T08:55:20;100172.88;;;12.23;100.00
24230;BME280;12362;50.004;8.006;2023-04-25T08:57:48;100175.50;;;12.51;100.00
24230;BME280;12362;50.004;8.006;2023-04-25T09:00:15;100169.66;;;13.69;100.00
24230;BME280;12362;50.004;8.006;2023-04-25T09:02:43;100175.41;;;13.22;100.00
24230;BME280;12362;50.004;8.006;2023-04-25T09:05:09;100176.00;;;13.65;100.00
24230;BME280;12362;50.004;8.006;2023-04-25T09:07:36;100178.78;;;13.36;100.00
24230;BME280;12362;50.004;8.006;2023-04-25T09:10:02;100177.94;;;12.81;100.00
24230;BME280;12362;50.004;8.006;2023-04-25T09:12:31;100183.69;;;12.45;100.00
24230;BME280;12362;50.004;8.006;2023-04-25T09:15:08;100193.94;;;12.04;100.00
24230;BME280;12362;50.004;8.006;2023-04-25T09:17:57;100204.56;;;11.86;100.00
24230;BME280;12362;50.004;8.006;2023-04-25T09:20:24;100202.97;;;11.83;100.00
24230;BME280;12362;50.004;8.006;2023-04-25T09:23:03;100201.78;;;13.03;100.00
24230;BME280;12362;50.004;8.006;2023-04-25T09:25:35;100205.13;;;12.91;100.00
24230;BME280;12362;50.004;8.006;2023-04-25T09:28:06;100204.19;;;13.06;100.00
24230;BME280;12362;50.004;8.006;2023-04-25T09:30:36;100192.34;;;12.59;100.00
24230;BME280;12362;50.004;8.006;2023-04-25T09:33:30;100205.84;;;12.79;100.00
24230;BME280;12362;50.004;8.006;2023-04-25T09:36:03;100207.81;;;12.76;100.00
24230;BME280;12362;50.004;8.006;2023-04-25T09:38:59;100220.66;;;12.22;100.00
24230;BME280;12362;50.004;8.006;2023-04-25T09:41:28;100241.91;;;11.70;100.00
24230;BME280;12362;50.004;8.006;2023-04-25T09:44:01;100246.16;;;11.24;100.00
24230;BME280;12362;50.004;8.006;2023-04-25T09:46:35;100255.47;;;11.28;100.00
24230;BME280;12362;50.004;8.006;2023-04-25T09:49:07;100244.91;;;11.77;100.00
24230;BME280;12362;50.004;8.006;2023-04-25T09:51:40;100231.97;;;11.91;100.00
24230;BME280;12362;50.004;8.006;2023-04-25T09:54:06;100247.78;;;12.18;100.00
24230;BME280;12362;50.004;8.006;2023-04-25T09:56:39;100237.09;;;12.66;100.00
24230;BME280;12362;50.004;8.006;2023-04-25T09:59:07;100238.63;;;13.25;100.00
24230;BME280;12362;50.004;8.006;2023-04-25T10:01:36;100243.94;;;13.38;100.00
24230;BME280;12362;50.004;8.006;2023-04-25T10:04:11;100240.09;;;13.29;100.00
24230;BME280;12362;50.004;8.006;2023-04-25T10:06:57;100245.00;;;13.48;100.00
24230;BME280;12362;50.004;8.006;2023-04-25T10:09:26;100233.34;;;13.13;97.98
24230;BME280;12362;50.004;8.006;2023-04-25T10:11:55;100237.16;;;13.07;100.00
24230;BME280;12362;50.004;8.006;2023-04-25T10:14:21;100234.63;;;13.06;100.00
24230;BME280;12362;50.004;8.006;2023-04-25T10:16:49;100239.53;;;12.68;100.00
24230;BME280;12362;50.004;8.006;2023-04-25T10:19:19;100241.47;;;12.79;100.00
24230;BME280;12362;50.004;8.006;2023-04-25T10:24:39;100241.47;;;12.51;100.00
24230;BME280;12362;50.004;8.006;2023-04-25T10:27:05;100255.16;;;12.25;100.00
24230;BME280;12362;50.004;8.006;2023-04-25T10:29:31;100264.94;;;12.06;100.00
24230;BME280;12362;50.004;8.006;2023-04-25T10:31:57;100261.53;;;11.90;100.00
24230;BME280;12362;50.004;8.006;2023-04-25T10:34:25;100255.03;;;12.13;100.00
24230;BME280;12362;50.004;8.006;2023-04-25T10:37:03;100260.66;;;12.05;100.00
24230;BME280;12362;50.004;8.006;2023-04-25T10:39:32;100253.81;;;12.62;100.00
24230;BME280;12362;50.004;8.006;2023-04-25T10:42:01;100250.34;;;13.32;100.00
24230;BME280;12362;50.004;8.006;2023-04-25T10:44:28;100243.38;;;13.59;100.00
24230;BME280;12362;50.004;8.006;2023-04-25T10:46:59;100236.78;;;14.33;100.00
24230;BME280;12362;50.004;8.006;2023-04-25T10:49:36;100231.53;;;15.45;89.13
24230;BME280;12362;50.004;8.006;2023-04-25T10:54:55;100227.78;;;15.36;65.78
24230;BME280;12362;50.004;8.006;2023-04-25T10:57:36;100211.53;;;16.14;71.97
24230;BME280;12362;50.004;8.006;2023-04-25T11:02:55;100232.09;;;14.50;85.74
24230;BME280;12362;50.004;8.006;2023-04-25T11:05:33;100248.69;;;13.71;83.81
24230;BME280;12362;50.004;8.006;2023-04-25T11:08:00;100265.13;;;13.46;100.00
24230;BME280;12362;50.004;8.006;2023-04-25T11:10:32;100263.44;;;13.59;100.00
24230;BME280;12362;50.004;8.006;2023-04-25T11:13:01;100275.03;;;13.13;88.13
24230;BME280;12362;50.004;8.006;2023-04-25T11:15:26;100276.53;;;12.73;97.62
24230;BME280;12362;50.004;8.006;2023-04-25T11:17:52;100282.47;;;12.91;95.21
24230;BME280;12362;50.004;8.006;2023-04-25T11:20:19;100285.94;;;12.62;98.96
24230;BME280;12362;50.004;8.006;2023-04-25T11:22:46;100292.00;;;12.76;100.00
24230;BME280;12362;50.004;8.006;2023-04-25T11:25:13;100291.63;;;12.68;100.00
24230;BME280;12362;50.004;8.006;2023-04-25T11:27:56;100291.22;;;13.18;100.00
24230;BME280;12362;50.004;8.006;2023-04-25T11:30:23;100295.50;;;12.62;96.73
24230;BME280;12362;50.004;8.006;2023-04-25T11:32:49;100288.44;;;12.64;88.37
24230;BME280;12362;50.004;8.006;2023-04-25T11:35:16;100279.06;;;14.13;78.63
24230;BME280;12362;50.004;8.006;2023-04-25T11:37:45;100284.41;;;14.24;70.63
24230;BME280;12362;50.004;8.006;2023-04-25T11:40:11;100280.56;;;13.62;75.93
24230;BME280;12362;50.004;8.006;2023-04-25T11:42:43;100285.97;;;14.26;88.52
24230;BME280;12362;50.004;8.006;2023-04-25T11:45:10;100278.41;;;13.69;78.26
24230;BME280;12362;50.004;8.006;2023-04-25T11:47:36;100275.56;;;13.86;94.73
24230;BME280;12362;50.004;8.006;2023-04-25T11:50:03;100277.28;;;13.73;97.20
24230;BME280;12362;50.004;8.006;2023-04-25T11:52:41;100264.88;;;14.03;75.07
24230;BME280;12362;50.004;8.006;2023-04-25T11:55:09;100282.06;;;13.53;84.38
24230;BME280;12362;50.004;8.006;2023-04-25T11:57:37;100286.06;;;13.44;95.52
24230;BME280;12362;50.004;8.006;2023-04-25T12:00:15;100291.88;;;12.93;100.00
24230;BME280;12362;50.004;8.006;2023-04-25T12:02:44;100285.06;;;12.91;100.00
24230;BME280;12362;50.004;8.006;2023-04-25T12:05:11;100286.63;;;12.79;100.00
24230;BME280;12362;50.004;8.006;2023-04-25T12:07:37;100287.53;;;13.76;98.15
24230;BME280;12362;50.004;8.006;2023-04-25T12:10:07;100280.09;;;15.36;81.72
24230;BME280;12362;50.004;8.006;2023-04-25T12:12:34;100275.94;;;15.34;68.97
24230;BME280;12362;50.004;8.006;2023-04-25T12:15:10;100299.06;;;13.86;81.16
24230;BME280;12362;50.004;8.006;2023-04-25T12:17:38;100284.00;;;15.79;67.68
24230;BME280;12362;50.004;8.006;2023-04-25T12:20:09;100280.38;;;15.56;62.86
24230;BME280;12362;50.004;8.006;2023-04-25T12:22:35;100286.81;;;14.78;62.83
24230;BME280;12362;50.004;8.006;2023-04-25T12:25:02;100287.34;;;14.32;61.20
24230;BME280;12362;50.004;8.006;2023-04-25T12:27:31;100288.47;;;14.28;65.51
24230;BME280;12362;50.004;8.006;2023-04-25T12:29:57;100296.44;;;13.32;64.31
24230;BME280;12362;50.004;8.006;2023-04-25T12:32:23;100285.06;;;13.61;63.92
24230;BME280;12362;50.004;8.006;2023-04-25T12:34:58;100281.34;;;14.56;60.35
24230;BME280;12362;50.004;8.006;2023-04-25T12:37:24;100298.25;;;14.12;61.56
24230;BME280;12362;50.004;8.006;2023-04-25T12:39:49;100294.25;;;14.33;61.42
24230;BME280;12362;50.004;8.006;2023-04-25T12:42:15;100289.09;;;14.95;66.92
24230;BME280;12362;50.004;8.006;2023-04-25T12:44:41;100290.16;;;14.92;65.45
24230;BME280;12362;50.004;8.006;2023-04-25T12:47:07;100280.53;;;14.68;69.19
24230;BME280;12362;50.004;8.006;2023-04-25T12:49:32;100289.19;;;14.81;69.62
24230;BME280;12362;50.004;8.006;2023-04-25T12:51:58;100277.53;;;15.95;58.38
24230;BME280;12362;50.004;8.006;2023-04-25T12:54:24;100292.19;;;15.98;56.65
24230;BME280;12362;50.004;8.006;2023-04-25T12:56:50;100287.53;;;15.42;52.45
24230;BME280;12362;50.004;8.006;2023-04-25T12:59:16;100289.31;;;14.67;58.78
24230;BME280;12362;50.004;8.006;2023-04-25T13:01:43;100292.34;;;15.84;62.23
24230;BME280;12362;50.004;8.006;2023-04-25T13:04:10;100277.88;;;16.83;54.26
24230;BME280;12362;50.004;8.006;2023-04-25T13:06:36;100294.84;;;14.87;55.92
24230;BME280;12362;50.004;8.006;2023-04-25T13:09:01;100297.69;;;15.47;60.25
24230;BME280;12362;50.004;8.006;2023-04-25T13:11:28;100302.19;;;14.82;61.47
24230;BME280;12362;50.004;8.006;2023-04-25T13:13:54;100301.59;;;14.40;68.93
24230;BME280;12362;50.004;8.006;2023-04-25T13:16:20;100307.63;;;14.41;72.96
24230;BME280;12362;50.004;8.006;2023-04-25T13:18:46;100314.94;;;14.99;67.88
24230;BME280;12362;50.004;8.006;2023-04-25T13:21:15;100304.69;;;15.09;61.24